createdAt,value
2022-12-06T00:01:40.132Z,30.20
2022-12-06T00:04:11.774Z,31.40
2022-12-06T00:06:47.842Z,33.40
2022-12-06T00:09:24.148Z,32.80
2022-12-06T00:11:51.282Z,30.20
2022-12-06T00:14:20.002Z,33.30
2022-12-06T00:16:47.479Z,38.10
2022-12-06T00:19:17.631Z,38.50
2022-12-06T00:21:45.159Z,41.90
2022-12-06T00:24:16.052Z,42.30
2022-12-06T00:26:45.962Z,44.20
2022-12-06T00:29:20.443Z,41.90
2022-12-06T00:31:47.506Z,38.90
2022-12-06T00:34:14.297Z,37.70
2022-12-06T00:36:42.502Z,36.50
2022-12-06T00:39:16.871Z,34.50
2022-12-06T00:41:43.889Z,32.30
2022-12-06T00:44:11.163Z,32.00
2022-12-06T00:46:38.486Z,30.00
2022-12-06T00:49:07.828Z,29.50
2022-12-06T00:51:35.726Z,31.00
2022-12-06T00:54:02.906Z,28.40
2022-12-06T00:56:29.607Z,28.60
2022-12-06T00:58:56.190Z,29.30
2022-12-06T01:01:29.451Z,27.20
2022-12-06T01:04:02.915Z,25.50
2022-12-06T01:06:35.555Z,28.70
2022-12-06T01:09:08.319Z,28.70
2022-12-06T01:11:35.559Z,29.70
2022-12-06T01:14:02.361Z,30.80
2022-12-06T01:16:31.568Z,32.80
2022-12-06T01:19:02.851Z,33.10
2022-12-06T01:21:30.281Z,30.20
2022-12-06T01:23:57.309Z,29.10
2022-12-06T01:26:29.011Z,29.00
2022-12-06T01:28:57.786Z,28.60
2022-12-06T01:31:24.439Z,28.20
2022-12-06T01:33:50.999Z,30.70
2022-12-06T01:36:24.931Z,29.40
2022-12-06T01:38:57.678Z,29.20
2022-12-06T01:41:26.977Z,29.40
2022-12-06T01:43:54.873Z,29.90
2022-12-06T01:46:38.110Z,28.30
2022-12-06T01:49:13.755Z,25.80
2022-12-06T01:51:51.092Z,24.60
2022-12-06T01:54:20.871Z,25.40
2022-12-06T01:56:49.300Z,26.60
2022-12-06T01:59:16.682Z,25.70
2022-12-06T02:01:43.779Z,26.30
2022-12-06T02:04:10.383Z,24.80
2022-12-06T02:06:38.944Z,25.30
2022-12-06T02:09:08.746Z,25.90
2022-12-06T02:11:36.055Z,25.80
2022-12-06T02:14:14.547Z,25.60
2022-12-06T02:17:07.716Z,25.50
2022-12-06T02:20:19.121Z,23.70
2022-12-06T02:23:22.579Z,23.70
2022-12-06T02:26:26.785Z,23.60
2022-12-06T02:29:30.362Z,25.10
2022-12-06T02:32:03.401Z,24.50
2022-12-06T02:34:57.125Z,27.00
2022-12-06T02:37:46.942Z,26.90
2022-12-06T02:40:29.088Z,24.60
2022-12-06T02:51:17.102Z,24.50
2022-12-06T02:53:51.807Z,25.00
2022-12-06T02:56:19.750Z,25.70
2022-12-06T02:58:47.522Z,26.50
2022-12-06T03:01:26.335Z,25.20
2022-12-06T03:04:11.311Z,25.60
2022-12-06T03:07:03.666Z,25.10
2022-12-06T03:10:05.914Z,26.10
2022-12-06T03:12:47.846Z,25.10
2022-12-06T03:15:41.668Z,25.40
2022-12-06T03:18:24.094Z,26.60
2022-12-06T03:21:06.892Z,27.80
2022-12-06T03:23:40.519Z,27.90
2022-12-06T03:26:11.314Z,28.80
2022-12-06T03:28:39.619Z,27.20
2022-12-06T03:31:13.322Z,25.70
2022-12-06T03:33:53.147Z,26.60
2022-12-06T03:36:21.734Z,28.00
2022-12-06T03:38:59.077Z,27.20
2022-12-06T03:41:36.367Z,27.10
2022-12-06T03:44:02.980Z,29.70
2022-12-06T03:46:45.839Z,30.10
2022-12-06T03:49:19.349Z,29.50
2022-12-06T03:51:46.594Z,28.20
2022-12-06T03:54:12.995Z,29.90
2022-12-06T03:56:39.777Z,30.00
2022-12-06T03:59:11.881Z,29.30
2022-12-06T04:01:39.606Z,30.20
2022-12-06T04:04:06.219Z,30.80
2022-12-06T04:06:32.813Z,31.60
2022-12-06T04:09:19.187Z,30.90
2022-12-06T04:11:46.421Z,28.40
2022-12-06T04:14:12.880Z,30.70
2022-12-06T04:16:57.959Z,34.50
2022-12-06T04:19:24.324Z,33.20
2022-12-06T04:22:09.058Z,32.10
2022-12-06T04:24:35.446Z,30.10
2022-12-06T04:27:20.228Z,30.90
2022-12-06T04:30:05.140Z,30.40
2022-12-06T04:32:49.813Z,31.10
2022-12-06T04:35:35.007Z,30.30
2022-12-06T04:38:20.315Z,30.20
2022-12-06T04:40:48.177Z,31.80
2022-12-06T04:43:33.999Z,30.60
2022-12-06T04:46:00.458Z,30.50
2022-12-06T04:48:26.862Z,30.20
2022-12-06T04:50:53.254Z,32.60
2022-12-06T04:53:19.600Z,31.60
2022-12-06T04:55:48.509Z,33.30
2022-12-06T04:58:16.038Z,32.40
2022-12-06T05:00:45.432Z,31.60
2022-12-06T05:03:14.480Z,33.20
2022-12-06T05:05:42.619Z,33.40
2022-12-06T05:08:10.146Z,32.70
2022-12-06T05:10:37.448Z,36.70
2022-12-06T05:13:04.616Z,38.50
2022-12-06T05:15:31.998Z,41.20
2022-12-06T05:17:58.390Z,36.50
2022-12-06T05:20:24.861Z,34.90
2022-12-06T05:22:51.362Z,34.90
2022-12-06T05:25:17.840Z,36.90
2022-12-06T05:27:44.741Z,36.20
2022-12-06T05:30:12.118Z,39.10
2022-12-06T05:32:40.426Z,47.00
2022-12-06T05:35:08.049Z,46.70
2022-12-06T05:37:34.516Z,43.70
2022-12-06T05:40:01.064Z,51.90
2022-12-06T05:42:27.746Z,54.20
2022-12-06T05:44:54.154Z,47.90
2022-12-06T05:47:20.591Z,46.50
2022-12-06T05:49:47.023Z,42.50
2022-12-06T05:52:13.363Z,39.90
2022-12-06T05:54:39.750Z,36.00
2022-12-06T05:57:06.094Z,34.50
2022-12-06T05:59:33.524Z,36.90
2022-12-06T06:01:59.945Z,35.60
2022-12-06T06:04:26.470Z,35.50
2022-12-06T06:06:54.773Z,32.60
2022-12-06T06:09:21.297Z,32.90
2022-12-06T06:11:47.795Z,31.00
2022-12-06T06:14:14.808Z,32.40
2022-12-06T06:16:41.314Z,31.30
2022-12-06T06:19:07.781Z,30.50
2022-12-06T06:21:34.222Z,29.90
2022-12-06T06:24:00.625Z,31.90
2022-12-06T06:26:27.020Z,30.50
2022-12-06T06:28:53.495Z,31.40
2022-12-06T06:31:19.922Z,32.60
2022-12-06T06:33:46.523Z,31.50
2022-12-06T06:36:13.207Z,31.20
2022-12-06T06:38:39.651Z,28.70
2022-12-06T06:41:06.935Z,29.70
2022-12-06T06:43:33.786Z,29.60
2022-12-06T06:46:03.742Z,28.10
2022-12-06T06:48:34.058Z,30.10
2022-12-06T06:51:10.107Z,32.20
2022-12-06T06:53:38.098Z,33.90
2022-12-06T06:56:06.451Z,31.90
2022-12-06T06:58:33.013Z,29.80
2022-12-06T07:01:02.677Z,28.10
2022-12-06T07:03:29.660Z,29.50
2022-12-06T07:06:02.820Z,28.10
2022-12-06T07:08:32.116Z,26.40
2022-12-06T07:10:58.900Z,27.50
2022-12-06T07:13:27.971Z,25.20
2022-12-06T07:15:54.842Z,27.00
2022-12-06T07:18:22.403Z,25.90
2022-12-06T07:20:49.804Z,26.20
2022-12-06T07:23:16.313Z,25.20
2022-12-06T07:25:42.958Z,26.40
2022-12-06T07:28:09.376Z,25.40
2022-12-06T07:30:35.870Z,28.00
2022-12-06T07:33:02.463Z,30.70
2022-12-06T07:35:48.520Z,29.50
2022-12-06T07:38:15.196Z,26.60
2022-12-06T07:41:03.361Z,27.60
2022-12-06T07:43:46.866Z,26.40
2022-12-06T07:46:13.501Z,26.20
2022-12-06T07:48:39.973Z,27.00
2022-12-06T07:51:07.586Z,29.70
2022-12-06T07:53:33.977Z,26.90
2022-12-06T07:56:10.099Z,31.70
2022-12-06T07:58:36.662Z,32.20
2022-12-06T08:01:04.627Z,32.00
2022-12-06T08:03:31.305Z,33.90
2022-12-06T08:05:57.695Z,31.20
2022-12-06T08:08:33.119Z,31.40
2022-12-06T08:11:01.237Z,31.70
2022-12-06T08:13:29.139Z,29.80
2022-12-06T08:15:56.427Z,29.90
2022-12-06T08:18:22.945Z,28.80
2022-12-06T08:20:55.228Z,29.30
2022-12-06T08:23:22.730Z,28.10
2022-12-06T08:26:18.858Z,29.90
2022-12-06T08:28:46.340Z,29.00
2022-12-06T08:31:20.248Z,27.60
2022-12-06T08:33:47.707Z,27.80
2022-12-06T08:36:21.054Z,31.60
2022-12-06T08:38:52.743Z,47.50
2022-12-06T08:41:39.378Z,48.70
2022-12-06T08:44:06.424Z,54.70
2022-12-06T08:46:34.936Z,53.80
2022-12-06T08:49:02.649Z,49.40
2022-12-06T08:51:33.893Z,51.10
2022-12-06T08:54:00.354Z,42.50
2022-12-06T08:56:27.699Z,44.70
2022-12-06T08:58:55.480Z,41.60
2022-12-06T09:01:29.201Z,46.80
2022-12-06T09:04:05.403Z,50.90
2022-12-06T09:06:31.943Z,48.40
2022-12-06T09:08:58.378Z,48.10
2022-12-06T09:11:30.778Z,46.10
2022-12-06T09:13:57.156Z,48.60
2022-12-06T09:16:24.496Z,43.80
2022-12-06T09:18:51.915Z,41.40
2022-12-06T09:21:25.286Z,44.20
2022-12-06T09:23:56.485Z,47.40
2022-12-06T09:26:30.741Z,46.80
2022-12-06T09:28:59.113Z,38.90
2022-12-06T09:31:26.123Z,38.40
2022-12-06T09:33:52.784Z,37.70
2022-12-06T09:36:25.373Z,40.00
2022-12-06T09:39:03.453Z,37.20
2022-12-06T09:42:25.689Z,38.50
2022-12-06T09:45:13.392Z,34.80
2022-12-06T09:48:10.773Z,34.50
2022-12-06T09:51:06.476Z,38.20
2022-12-06T09:54:02.685Z,38.90
2022-12-06T09:56:46.128Z,35.90
2022-12-06T09:59:36.354Z,35.70
2022-12-06T10:02:45.475Z,31.20
2022-12-06T10:05:30.497Z,26.80
2022-12-06T10:08:44.831Z,27.30
2022-12-06T10:11:57.495Z,26.70
2022-12-06T10:14:55.291Z,29.20
2022-12-06T10:17:52.119Z,29.40
2022-12-06T10:21:06.761Z,31.50
2022-12-06T10:24:01.687Z,31.40
2022-12-06T10:26:46.277Z,29.90
2022-12-06T10:29:29.209Z,26.40
2022-12-06T10:32:04.641Z,24.10
2022-12-06T10:34:58.577Z,22.10
2022-12-06T10:37:47.586Z,19.40
2022-12-06T10:40:28.890Z,20.00
2022-12-06T10:43:20.334Z,18.40
2022-12-06T10:46:32.589Z,19.60
2022-12-06T10:49:27.927Z,20.00
2022-12-06T10:52:12.245Z,18.70
2022-12-06T10:54:53.211Z,19.10
2022-12-06T10:57:41.665Z,21.00
2022-12-06T11:00:16.395Z,21.30
2022-12-06T11:03:09.807Z,24.00
2022-12-06T11:05:41.873Z,24.20
2022-12-06T11:08:38.208Z,25.10
2022-12-06T11:11:16.496Z,25.10
2022-12-06T11:13:59.512Z,23.60
2022-12-06T11:16:44.832Z,29.80
2022-12-06T11:19:34.312Z,29.10
2022-12-06T11:22:39.486Z,28.60
2022-12-06T11:25:21.647Z,28.90
2022-12-06T11:28:22.746Z,28.50
2022-12-06T11:30:54.336Z,29.20
2022-12-06T11:33:33.169Z,28.80
2022-12-06T11:36:07.227Z,28.90
2022-12-06T11:38:37.014Z,28.30
2022-12-06T11:41:07.961Z,27.00
2022-12-06T11:43:36.758Z,25.00
2022-12-06T11:46:13.473Z,24.60
2022-12-06T11:48:40.255Z,23.70
2022-12-06T11:51:20.339Z,24.60
2022-12-06T11:54:15.263Z,25.30
2022-12-06T11:56:41.766Z,24.50
2022-12-06T11:59:29.280Z,21.90
2022-12-06T12:02:03.617Z,21.90
2022-12-06T12:04:44.885Z,21.00
2022-12-06T12:07:23.583Z,19.40
2022-12-06T12:10:01.471Z,20.10
2022-12-06T12:13:01.566Z,18.90
2022-12-06T12:15:28.564Z,18.20
2022-12-06T12:17:58.614Z,17.60
2022-12-06T12:20:46.479Z,18.30
2022-12-06T12:23:24.142Z,23.90
2022-12-06T12:26:18.439Z,20.50
2022-12-06T12:29:07.932Z,20.10
2022-12-06T12:31:55.328Z,16.90
2022-12-06T12:34:27.274Z,29.50
2022-12-06T12:37:01.350Z,28.30
2022-12-06T12:39:41.119Z,24.50
2022-12-06T12:42:46.456Z,26.50
2022-12-06T12:45:22.241Z,24.30
2022-12-06T12:48:23.530Z,20.60
2022-12-06T12:50:56.500Z,20.00
2022-12-06T12:53:40.696Z,20.90
2022-12-06T12:56:10.057Z,17.80
2022-12-06T12:58:36.674Z,15.70
2022-12-06T13:01:25.734Z,17.40
2022-12-06T13:04:15.074Z,16.30
2022-12-06T13:07:34.579Z,14.80
2022-12-06T13:10:23.331Z,13.80
2022-12-06T13:13:00.514Z,14.50
2022-12-06T13:15:40.536Z,14.10
2022-12-06T13:18:39.734Z,15.60
2022-12-06T13:21:38.241Z,16.90
2022-12-06T13:24:22.318Z,17.30
2022-12-06T13:26:59.244Z,18.80
2022-12-06T13:29:39.536Z,20.50
2022-12-06T13:32:23.949Z,20.50
2022-12-06T13:35:22.088Z,21.70
2022-12-06T13:38:01.542Z,17.50
2022-12-06T13:40:45.866Z,14.70
2022-12-06T13:43:24.383Z,14.50
2022-12-06T13:45:52.768Z,12.70
2022-12-06T13:48:25.350Z,13.90
2022-12-06T13:51:26.049Z,14.00
2022-12-06T13:54:05.000Z,14.40
2022-12-06T13:56:34.140Z,14.80
2022-12-06T13:59:04.671Z,14.10
2022-12-06T14:01:43.064Z,14.70
2022-12-06T14:06:56.980Z,14.70
2022-12-06T14:09:28.695Z,13.80
2022-12-06T14:12:00.656Z,14.70
2022-12-06T14:14:27.074Z,17.00
2022-12-06T14:17:00.361Z,25.10
2022-12-06T14:19:45.591Z,21.50
2022-12-06T14:22:27.821Z,19.40
2022-12-06T14:25:07.944Z,18.80
2022-12-06T14:27:44.812Z,17.90
2022-12-06T14:30:14.612Z,14.50
2022-12-06T14:32:45.925Z,15.30
2022-12-06T14:35:23.297Z,17.10
2022-12-06T14:38:14.604Z,18.40
2022-12-06T14:41:02.492Z,17.20
2022-12-06T14:43:32.982Z,17.30
2022-12-06T14:46:04.514Z,16.60
2022-12-06T14:48:52.833Z,16.20
2022-12-06T14:51:26.474Z,16.00
2022-12-06T14:53:53.298Z,17.00
2022-12-06T14:56:35.220Z,16.60
2022-12-06T14:59:11.263Z,16.90
2022-12-06T15:01:49.509Z,17.80
2022-12-06T15:04:37.567Z,19.10
2022-12-06T15:07:05.407Z,17.80
2022-12-06T15:09:45.988Z,20.10
2022-12-06T15:12:50.459Z,19.00
2022-12-06T15:15:38.780Z,19.80
2022-12-06T15:18:23.733Z,20.00
2022-12-06T15:20:53.377Z,21.20
2022-12-06T15:23:25.501Z,17.50
2022-12-06T15:25:52.051Z,16.70
2022-12-06T15:28:19.859Z,18.30
2022-12-06T15:30:46.929Z,20.90
2022-12-06T15:33:25.036Z,21.00
2022-12-06T15:35:52.086Z,19.50
2022-12-06T15:38:19.107Z,20.30
2022-12-06T15:40:49.568Z,19.10
2022-12-06T15:43:35.367Z,19.30
2022-12-06T15:46:04.331Z,18.60
2022-12-06T15:48:36.933Z,17.90
2022-12-06T15:51:10.357Z,19.10
2022-12-06T15:53:37.589Z,17.80
2022-12-06T15:56:04.307Z,18.60
2022-12-06T15:58:30.770Z,16.70
2022-12-06T16:00:58.862Z,17.80
2022-12-06T16:03:25.250Z,14.90
2022-12-06T16:05:51.704Z,17.00
2022-12-06T16:08:18.150Z,17.40
2022-12-06T16:11:10.923Z,19.50
2022-12-06T16:13:31.545Z,26.50
2022-12-06T16:15:57.985Z,25.30
2022-12-06T16:18:24.727Z,30.90
2022-12-06T16:20:51.108Z,36.80
2022-12-06T16:24:11.833Z,34.30
2022-12-06T16:26:35.267Z,34.30
2022-12-06T16:29:05.323Z,38.00
2022-12-06T16:31:36.523Z,39.30
2022-12-06T16:34:05.147Z,43.80
2022-12-06T16:36:34.894Z,46.40
2022-12-06T16:39:10.239Z,48.60
2022-12-06T16:41:37.077Z,54.90
2022-12-06T16:44:03.686Z,61.80
2022-12-06T16:46:34.952Z,56.70
2022-12-06T16:52:07.507Z,59.30
2022-12-06T16:54:35.239Z,54.50
2022-12-06T16:57:01.671Z,47.60
2022-12-06T16:59:28.113Z,50.50
2022-12-06T17:01:55.434Z,45.60
2022-12-06T17:04:22.548Z,42.60
2022-12-06T17:06:49.459Z,37.20
2022-12-06T17:09:16.225Z,30.10
2022-12-06T17:12:01.350Z,27.70
2022-12-06T17:14:28.241Z,33.30
2022-12-06T17:16:55.542Z,33.40
2022-12-06T17:19:28.172Z,32.90
2022-12-06T17:21:55.126Z,28.70
2022-12-06T17:24:24.659Z,39.40
2022-12-06T17:26:53.861Z,48.60
2022-12-06T17:29:20.378Z,36.40
2022-12-06T17:31:46.813Z,49.00
2022-12-06T17:34:14.601Z,53.40
2022-12-06T17:36:42.399Z,89.10
2022-12-06T17:39:13.392Z,57.30
2022-12-06T17:41:58.461Z,87.00
2022-12-06T17:44:24.890Z,75.70
2022-12-06T17:46:51.296Z,32.80
2022-12-06T17:49:24.719Z,56.40
2022-12-06T17:51:51.406Z,29.60
2022-12-06T17:54:19.525Z,33.30
2022-12-06T17:56:52.377Z,33.90
2022-12-06T17:59:22.571Z,37.50
2022-12-06T18:02:14.242Z,42.90
2022-12-06T18:04:37.303Z,42.90
2022-12-06T18:07:03.874Z,43.90
2022-12-06T18:09:30.303Z,48.90
2022-12-06T18:11:56.902Z,39.40
2022-12-06T18:14:23.321Z,38.90
2022-12-06T18:16:49.880Z,38.90
2022-12-06T18:19:20.274Z,32.40
2022-12-06T18:21:48.416Z,29.00
2022-12-06T18:24:22.703Z,20.40
2022-12-06T18:26:51.117Z,20.80
2022-12-06T18:29:23.452Z,20.30
2022-12-06T18:31:52.132Z,19.90
2022-12-06T18:34:20.040Z,34.40
2022-12-06T18:36:47.684Z,28.90
2022-12-06T18:39:24.054Z,17.30
2022-12-06T18:41:54.404Z,22.80
2022-12-06T18:44:21.893Z,24.80
2022-12-06T18:46:48.333Z,27.00
2022-12-06T18:49:14.972Z,26.00
2022-12-06T18:51:41.810Z,50.40
2022-12-06T18:54:10.170Z,45.50
2022-12-06T18:56:36.591Z,50.70
2022-12-06T18:59:08.912Z,40.30
2022-12-06T19:01:38.749Z,30.70
2022-12-06T19:04:09.554Z,28.30
2022-12-06T19:06:38.368Z,23.90
2022-12-06T19:09:09.878Z,20.50
2022-12-06T19:11:43.143Z,26.30
2022-12-06T19:14:10.119Z,26.70
2022-12-06T19:16:41.881Z,26.00
2022-12-06T19:19:16.595Z,22.90
2022-12-06T19:21:45.484Z,22.10
2022-12-06T19:24:15.957Z,19.20
2022-12-06T19:26:43.171Z,17.60
2022-12-06T19:29:10.041Z,18.40
2022-12-06T19:31:36.719Z,15.60
2022-12-06T19:34:03.327Z,13.10
2022-12-06T19:36:31.568Z,11.30
2022-12-06T19:39:01.828Z,13.20
2022-12-06T19:41:29.596Z,12.30
2022-12-06T19:44:14.720Z,12.30
2022-12-06T19:46:46.438Z,11.70
2022-12-06T19:49:15.603Z,11.50
2022-12-06T19:51:45.576Z,15.50
2022-12-06T19:54:18.856Z,12.60
2022-12-06T19:56:45.541Z,10.50
2022-12-06T19:59:12.031Z,11.40
2022-12-06T20:01:44.843Z,12.10
2022-12-06T20:04:22.661Z,10.90
2022-12-06T20:06:50.770Z,11.40
2022-12-06T20:09:19.734Z,7.90
2022-12-06T20:12:02.178Z,15.40
2022-12-06T20:14:45.004Z,9.20
2022-12-06T20:17:19.115Z,10.60
2022-12-06T20:19:46.400Z,10.30
2022-12-06T20:22:15.331Z,12.10
2022-12-06T20:24:42.972Z,12.40
2022-12-06T20:27:09.991Z,24.50
2022-12-06T20:29:36.498Z,11.80
2022-12-06T20:32:03.933Z,9.70
2022-12-06T20:34:34.041Z,11.20
2022-12-06T20:37:03.819Z,14.70
2022-12-06T20:39:32.833Z,15.80
2022-12-06T20:41:59.526Z,17.00
2022-12-06T20:44:25.946Z,8.20
2022-12-06T20:46:53.948Z,12.70
2022-12-06T20:49:20.578Z,11.30
2022-12-06T20:51:52.633Z,10.90
2022-12-06T20:54:19.777Z,13.40
2022-12-06T20:56:47.095Z,13.00
2022-12-06T20:59:13.868Z,10.30
2022-12-06T21:01:41.855Z,9.70
2022-12-06T21:04:13.306Z,7.40
2022-12-06T21:06:40.261Z,11.10
2022-12-06T21:09:06.726Z,11.20
2022-12-06T21:11:33.147Z,10.30
2022-12-06T21:13:59.698Z,9.30
2022-12-06T21:16:30.184Z,10.80
2022-12-06T21:19:06.775Z,8.60
2022-12-06T21:21:40.331Z,12.90
2022-12-06T21:24:11.187Z,10.50
2022-12-06T21:26:38.062Z,8.80
2022-12-06T21:29:08.487Z,8.60
2022-12-06T21:31:40.718Z,7.90
2022-12-06T21:34:07.345Z,10.50
2022-12-06T21:36:34.023Z,9.80
2022-12-06T21:39:00.873Z,11.10
2022-12-06T21:41:27.543Z,10.50
2022-12-06T21:43:54.177Z,11.60
2022-12-06T21:46:24.298Z,12.20
2022-12-06T21:48:57.415Z,11.40
2022-12-06T21:51:27.580Z,11.40
2022-12-06T21:53:56.317Z,9.50
2022-12-06T21:56:26.581Z,11.30
2022-12-06T21:58:54.152Z,11.30
2022-12-06T22:01:24.456Z,12.00
2022-12-06T22:03:54.058Z,10.20
2022-12-06T22:06:21.536Z,9.30
2022-12-06T22:08:49.504Z,10.50
2022-12-06T22:11:19.887Z,13.00
2022-12-06T22:13:48.053Z,11.60
2022-12-06T22:16:16.647Z,10.90
2022-12-06T22:18:46.027Z,10.90
2022-12-06T22:21:22.559Z,9.70
2022-12-06T22:23:48.964Z,12.00
2022-12-06T22:26:20.272Z,11.00
2022-12-06T22:28:47.537Z,10.40
2022-12-06T22:31:20.690Z,10.80
2022-12-06T22:33:48.433Z,10.00
2022-12-06T22:36:16.237Z,10.80
2022-12-06T22:38:43.532Z,10.80
2022-12-06T22:41:10.211Z,10.40
2022-12-06T22:43:37.470Z,10.60
2022-12-06T22:46:10.468Z,10.70
2022-12-06T22:48:38.153Z,9.60
2022-12-06T22:51:20.167Z,10.50
2022-12-06T22:53:53.504Z,10.80
2022-12-06T22:56:21.179Z,11.60
2022-12-06T22:58:48.691Z,10.80
2022-12-06T23:01:18.934Z,11.40
2022-12-06T23:03:47.959Z,12.50
2022-12-06T23:06:17.500Z,12.00
2022-12-06T23:08:44.695Z,13.10
2022-12-06T23:11:18.574Z,11.10
2022-12-06T23:13:46.034Z,12.50
2022-12-06T23:16:16.305Z,19.10
2022-12-06T23:18:43.503Z,14.00
2022-12-06T23:21:34.932Z,13.70
2022-12-06T23:24:07.479Z,11.50
2022-12-06T23:26:41.223Z,11.40
2022-12-06T23:29:08.649Z,11.10
2022-12-06T23:31:39.103Z,10.80
2022-12-06T23:34:18.865Z,12.10
2022-12-06T23:36:45.420Z,12.20
2022-12-06T23:39:12.483Z,12.00
2022-12-06T23:41:39.363Z,7.00
2022-12-06T23:44:06.863Z,12.50
2022-12-06T23:46:37.125Z,12.40
2022-12-06T23:49:05.383Z,14.10
2022-12-06T23:51:37.849Z,11.90
2022-12-06T23:54:08.202Z,13.20
2022-12-06T23:56:38.712Z,11.90
2022-12-06T23:59:08.411Z,10.60
